Time;durP1;ratioP1;P1;durP2;ratioP2;P2;SDS_P1;SDS_P2;PMS_P1;PMS_P2;Temp;Humidity;BMP_temperature;BMP_pressure;BME280_temperature;BME280_humidity;BME280_pressure;Samples;Min_cycle;Max_cycle;Signal;HPM_P1;HPM_P2
2022/10/03 00:02:49;;;;;;;3.63;1.20;;;;;;;22.04;38.96;95064.38;6144839;28;103287;-69
2022/10/03 00:06:09;;;;;;;1.20;1.10;;;;;;;22.06;39.21;95061.41;6145869;28;104540;-70
2022/10/03 00:09:28;;;;;;;1.40;1.20;;;;;;;22.03;39.39;95062.81;6139634;28;105625;-69
2022/10/03 00:12:46;;;;;;;1.13;1.00;;;;;;;22.05;39.39;95049.19;6145519;28;105617;-70
2022/10/03 00:15:54;;;;;;;2.20;1.37;;;;;;;22.04;39.14;95040.41;6143264;28;102862;-70
2022/10/03 00:19:08;;;;;;;1.50;1.20;;;;;;;21.98;39.10;95033.59;6138316;28;102908;-70
2022/10/03 00:22:22;;;;;;;1.50;1.30;;;;;;;21.97;39.19;95037.34;6127303;28;102972;-70
2022/10/03 00:25:37;;;;;;;1.63;1.23;;;;;;;21.96;39.55;95029.66;6144109;28;103340;-70
2022/10/03 00:28:51;;;;;;;1.40;1.17;;;;;;;21.95;39.27;95012.13;6142931;28;103395;-70
2022/10/03 00:32:11;;;;;;;1.53;1.40;;;;;;;21.94;38.94;95014.00;6135619;28;104597;-70
2022/10/03 00:35:24;;;;;;;1.27;1.13;;;;;;;21.97;39.13;95020.59;6145548;28;104676;-70
2022/10/03 00:39:01;;;;;;;1.10;1.00;;;;;;;21.98;39.51;95025.59;6145400;28;103156;-70
2022/10/03 00:42:45;;;;;;;1.43;1.00;;;;;;;21.99;39.49;95021.06;6136418;28;104719;-70
2022/10/03 00:46:15;;;;;;;1.77;1.10;;;;;;;21.95;39.36;95018.22;6145112;28;103291;-69
2022/10/03 00:49:58;;;;;;;1.30;1.20;;;;;;;21.97;39.68;95025.91;6119725;28;103187;-70
2022/10/03 00:53:20;;;;;;;1.10;1.00;;;;;;;21.94;39.64;95021.97;6131418;28;103474;-70
2022/10/03 00:56:55;;;;;;;1.80;1.07;;;;;;;21.91;39.54;95029.81;6143340;28;103239;-71
2022/10/03 01:00:14;;;;;;;1.10;1.00;;;;;;;21.90;39.43;95026.34;6135423;28;103151;-70
2022/10/03 01:03:31;;;;;;;1.47;1.20;;;;;;;21.92;39.50;95034.81;6144708;28;103173;-71
2022/10/03 01:06:43;;;;;;;1.90;1.13;;;;;;;21.88;39.66;95022.44;6133914;28;103308;-70
2022/10/03 01:10:00;;;;;;;1.53;1.13;;;;;;;21.89;39.34;95030.13;6144285;28;106351;-69
2022/10/03 01:13:21;;;;;;;1.07;0.90;;;;;;;21.86;39.17;95008.63;6143294;28;104649;-69
2022/10/03 01:16:39;;;;;;;1.10;1.00;;;;;;;21.87;39.35;95016.31;6136084;28;104048;-70
2022/10/03 01:20:06;;;;;;;1.10;1.00;;;;;;;21.84;39.64;95016.91;6147091;28;103364;-71
2022/10/03 01:23:41;;;;;;;1.10;1.00;;;;;;;21.88;39.85;95011.78;6134582;28;103777;-69
2022/10/03 01:26:58;;;;;;;1.73;1.10;;;;;;;21.87;39.75;95013.66;6141118;28;103288;-69
2022/10/03 01:30:22;;;;;;;1.60;1.20;;;;;;;21.83;39.36;95010.00;6137201;28;104020;-70
2022/10/03 01:33:31;;;;;;;1.83;1.40;;;;;;;21.81;39.21;95001.50;6147693;28;103246;-69
2022/10/03 01:36:42;;;;;;;2.20;1.40;;;;;;;21.76;39.32;94998.97;6147457;28;105839;-69
2022/10/03 01:39:53;;;;;;;1.77;1.30;;;;;;;21.74;39.41;94990.50;6133687;28;103257;-68
2022/10/03 01:43:06;;;;;;;3.53;1.77;;;;;;;21.77;39.32;94998.66;6131595;28;103293;-69
2022/10/03 01:46:18;;;;;;;2.10;1.40;;;;;;;21.76;39.32;95005.09;6134834;28;103316;-70
2022/10/03 01:49:28;;;;;;;3.30;1.70;;;;;;;21.75;39.71;95000.06;6144260;28;103420;-66
2022/10/03 01:52:39;;;;;;;1.60;1.30;;;;;;;21.78;39.64;95004.78;6134876;28;104735;-65
2022/10/03 01:55:56;;;;;;;1.60;1.30;;;;;;;21.76;39.26;94993.66;6140323;28;103115;-65
2022/10/03 01:59:05;;;;;;;1.20;1.10;;;;;;;21.74;39.42;94985.97;6145719;28;105492;-66
2022/10/03 02:02:17;;;;;;;1.87;1.50;;;;;;;21.72;38.99;94988.16;6132579;28;103505;-66
2022/10/03 02:05:35;;;;;;;1.57;1.40;;;;;;;21.75;39.28;94984.09;6144443;28;105102;-65
2022/10/03 02:08:50;;;;;;;1.47;1.20;;;;;;;21.75;39.34;94981.41;6144608;28;104480;-68
2022/10/03 02:12:03;;;;;;;1.10;1.03;;;;;;;21.73;39.53;94983.59;6140840;28;103789;-65
2022/10/03 02:15:16;;;;;;;1.63;1.40;;;;;;;21.73;39.10;94980.94;6133600;28;105675;-65
2022/10/03 02:18:28;;;;;;;1.63;1.13;;;;;;;21.71;39.35;94972.47;6145007;28;103244;-67
2022/10/03 02:21:33;;;;;;;1.77;0.97;;;;;;;21.69;39.47;94980.78;6144937;28;105996;-65
2022/10/03 02:24:50;;;;;;;1.50;1.30;;;;;;;21.71;39.71;94981.25;6133442;28;104393;-65
2022/10/03 02:28:35;;;;;;;1.93;1.73;;;;;;;21.73;39.03;94978.28;6142207;28;103410;-65
2022/10/03 02:32:06;;;;;;;1.73;1.20;;;;;;;21.69;39.35;94979.97;6143884;28;105834;-66
2022/10/03 02:35:28;;;;;;;1.20;1.10;;;;;;;21.71;39.56;94985.78;6138889;28;103458;-65
2022/10/03 02:38:47;;;;;;;1.20;1.07;;;;;;;21.69;39.13;94982.66;6143164;28;105140;-65
2022/10/03 02:42:26;;;;;;;1.50;1.37;;;;;;;21.70;38.97;94994.88;6128844;28;103509;-67
2022/10/03 02:46:06;;;;;;;1.40;1.30;;;;;;;21.72;39.12;94985.47;6109895;28;103332;-65
2022/10/03 02:49:51;;;;;;;1.53;1.37;;;;;;;21.71;39.45;94983.91;6137500;28;102931;-66
2022/10/03 02:53:43;;;;;;;2.30;1.60;;;;;;;21.73;39.32;94978.28;6080349;28;102857;-66
2022/10/03 02:57:15;;;;;;;1.47;1.30;;;;;;;21.72;39.53;94979.38;6144530;28;104840;-65
2022/10/03 03:00:20;;;;;;;1.83;1.30;;;;;;;21.73;39.36;94988.94;6133461;28;104934;-66
2022/10/03 03:03:55;;;;;;;2.30;1.50;;;;;;;21.73;39.89;94994.25;6141457;28;103310;-66
2022/10/03 03:07:19;;;;;;;4.03;2.27;;;;;;;21.71;39.81;94989.25;6136887;28;104154;-66
2022/10/03 03:10:55;;;;;;;9.70;7.20;;;;;;;21.72;40.20;94982.03;6127840;28;102915;-66
2022/10/03 03:14:40;;;;;;;11.53;10.53;;;;;;;21.73;39.80;94980.94;6141401;28;104721;-66
2022/10/03 03:17:56;;;;;;;5.83;3.37;;;;;;;21.72;39.86;94979.38;6146139;28;103159;-61
2022/10/03 03:21:11;;;;;;;3.00;2.70;;;;;;;21.77;40.13;94979.22;6140135;28;103102;-65
2022/10/03 03:24:33;;;;;;;3.57;3.27;;;;;;;21.82;41.43;94979.13;6135322;28;103263;-65
2022/10/03 03:27:51;;;;;;;3.13;2.90;;;;;;;21.82;40.65;94979.13;6135496;28;105950;-67
2022/10/03 03:31:05;;;;;;;3.73;3.33;;;;;;;21.86;41.00;94977.44;6147284;28;105059;-65
2022/10/03 03:34:18;;;;;;;7.03;4.13;;;;;;;21.86;40.53;94966.78;6133866;28;103073;-65
2022/10/03 03:37:30;;;;;;;3.20;2.90;;;;;;;21.87;40.45;94972.91;6136459;28;103300;-65
2022/10/03 03:40:45;;;;;;;3.30;3.00;;;;;;;21.85;40.53;94967.09;6146016;28;103304;-65
2022/10/03 03:44:14;;;;;;;3.63;3.00;;;;;;;21.83;40.35;94959.38;6145785;28;104465;-68
2022/10/03 03:47:37;;;;;;;3.70;3.40;;;;;;;21.92;40.30;94951.44;6136372;28;103629;-66
2022/10/03 03:50:56;;;;;;;4.20;3.80;;;;;;;21.98;42.68;94960.88;6141056;28;105991;-65
2022/10/03 03:54:25;;;;;;;4.10;3.43;;;;;;;22.04;43.17;94957.78;6144917;28;104502;-66
2022/10/03 03:57:55;;;;;;;3.47;2.67;;;;;;;22.15;42.48;94944.97;6124746;28;104532;-65
2022/10/03 04:01:16;;;;;;;4.00;2.97;;;;;;;22.22;42.22;94952.53;6141599;28;105979;-65
2022/10/03 04:04:35;;;;;;;2.80;2.43;;;;;;;22.22;42.03;94947.19;6145287;28;103111;-65
2022/10/03 04:07:56;;;;;;;6.40;2.00;;;;;;;22.21;42.19;94938.41;6123300;28;103300;-64
2022/10/03 04:11:17;;;;;;;2.60;2.40;;;;;;;22.34;42.27;94945.50;6145896;28;105879;-67
2022/10/03 04:14:34;;;;;;;3.47;2.40;;;;;;;22.33;41.95;94951.13;6150182;28;103560;-67
2022/10/03 04:21:29;;;;;;;3.97;2.20;;;;;;;22.39;41.95;94947.25;6136238;28;105948;-67
2022/10/03 04:25:03;;;;;;;3.40;2.60;;;;;;;21.94;41.77;94942.06;6143261;28;103156;-67
2022/10/03 04:28:26;;;;;;;4.90;2.63;;;;;;;22.01;42.73;94947.75;6114205;28;105103;-66
2022/10/03 04:31:43;;;;;;;3.83;2.23;;;;;;;22.14;42.09;94935.38;6136736;28;103041;-66
2022/10/03 04:35:05;;;;;;;3.20;2.50;;;;;;;22.21;41.79;94943.75;6146094;28;105661;-67
2022/10/03 04:38:20;;;;;;;5.17;3.07;;;;;;;22.20;42.21;94930.72;6145981;28;103408;-67
2022/10/03 04:41:31;;;;;;;6.93;4.63;;;;;;;22.23;41.44;94954.09;6135436;28;106651;-67
2022/10/03 04:44:49;;;;;;;5.30;4.80;;;;;;;22.20;41.42;94941.38;6145944;28;103133;-66
2022/10/03 04:47:56;;;;;;;6.33;4.60;;;;;;;22.20;41.87;94933.41;6145472;28;103170;-66
2022/10/03 04:51:12;;;;;;;5.40;4.20;;;;;;;22.16;41.72;94935.09;6143475;28;103278;-66
2022/10/03 04:54:24;;;;;;;6.30;3.77;;;;;;;22.16;41.86;94938.53;6139352;28;103294;-67
2022/10/03 04:57:36;;;;;;;5.00;3.43;;;;;;;22.02;41.21;94945.88;6150335;28;103030;-67
2022/10/03 05:00:51;;;;;;;5.03;3.67;;;;;;;21.97;40.54;94941.44;6147691;28;104622;-67
2022/10/03 05:04:03;;;;;;;7.10;3.80;;;;;;;21.98;41.51;94935.00;6139163;28;107146;-69
2022/10/03 05:07:16;;;;;;;6.40;4.60;;;;;;;21.97;41.23;94941.44;6144773;28;103245;-67
2022/10/03 05:10:44;;;;;;;5.90;4.97;;;;;;;21.95;40.78;94948.97;6146340;28;103133;-67
2022/10/03 05:13:59;;;;;;;8.10;5.97;;;;;;;21.96;40.43;94939.09;6143489;28;104894;-67
2022/10/03 05:17:13;;;;;;;8.10;5.23;;;;;;;21.90;40.57;94950.97;6135657;28;104366;-65
2022/10/03 05:20:35;;;;;;;6.10;5.20;;;;;;;21.89;40.78;94950.19;6145412;28;103272;-65
2022/10/03 05:23:52;;;;;;;8.33;4.80;;;;;;;21.86;40.07;94944.69;6143743;28;103536;-66
2022/10/03 05:27:09;;;;;;;8.00;4.77;;;;;;;21.84;40.56;94949.50;6139648;28;104349;-65
2022/10/03 05:30:19;;;;;;;4.70;3.77;;;;;;;21.83;40.58;94946.06;6146111;28;104387;-65
2022/10/03 05:33:29;;;;;;;4.70;4.20;;;;;;;21.83;40.46;94943.41;6143998;28;106250;-68
2022/10/03 05:36:46;;;;;;;4.33;3.93;;;;;;;21.83;40.68;94937.28;6146658;28;106237;-67
2022/10/03 05:39:59;;;;;;;5.07;4.40;;;;;;;21.83;40.38;94940.75;6135698;28;104122;-66
2022/10/03 05:43:11;;;;;;;5.33;3.70;;;;;;;21.81;40.57;94929.56;6143047;28;103052;-66
2022/10/03 05:46:29;;;;;;;8.70;4.37;;;;;;;21.79;40.29;94913.13;6144580;28;103202;-67
2022/10/03 05:49:54;;;;;;;9.20;4.60;;;;;;;21.75;40.32;94912.97;6135052;28;103172;-66
2022/10/03 05:53:09;;;;;;;4.67;3.70;;;;;;;21.75;40.58;94909.50;6144590;28;105432;-66
2022/10/03 05:56:30;;;;;;;5.90;3.20;;;;;;;21.77;40.09;94913.44;6143895;28;107058;-66
2022/10/03 05:59:58;;;;;;;5.30;3.73;;;;;;;21.76;39.80;94921.72;6148017;28;103145;-66
2022/10/03 06:03:22;;;;;;;7.50;3.50;;;;;;;21.78;40.37;94919.53;6139703;28;104201;-66
2022/10/03 06:06:34;;;;;;;3.87;3.13;;;;;;;21.80;40.66;94922.69;6140657;28;103865;-66
2022/10/03 06:10:09;;;;;;;3.70;3.13;;;;;;;21.80;40.82;94925.34;6144807;28;103553;-66
2022/10/03 06:13:21;;;;;;;3.40;3.10;;;;;;;21.84;40.83;94933.53;6139957;28;105859;-66
2022/10/03 06:16:36;;;;;;;4.70;3.30;;;;;;;21.83;40.70;94929.31;6146304;28;103180;-66
2022/10/03 06:19:50;;;;;;;5.30;3.20;;;;;;;21.84;41.08;94941.53;6146673;28;103503;-69
2022/10/03 06:23:32;;;;;;;6.17;3.60;;;;;;;21.84;40.76;94936.19;6138710;28;103806;-66
2022/10/03 06:27:28;;;;;;;5.10;3.67;;;;;;;21.82;40.81;94947.16;6117736;28;103803;-66
2022/10/03 06:30:52;;;;;;;7.67;4.33;;;;;;;21.80;40.85;94946.66;6143842;28;103233;-65
2022/10/03 06:34:30;;;;;;;8.67;4.80;;;;;;;21.83;41.51;94961.25;6140056;28;103107;-67
2022/10/03 06:38:06;;;;;;;6.00;5.07;;;;;;;21.81;41.15;94942.91;6141436;28;104910;-66
2022/10/03 06:41:41;;;;;;;7.77;6.50;;;;;;;21.82;41.06;94952.50;6143701;28;103172;-65
2022/10/03 06:45:14;;;;;;;8.00;6.03;;;;;;;21.81;41.14;94953.56;6147061;28;103274;-65
2022/10/03 06:48:45;;;;;;;8.63;6.00;;;;;;;21.80;40.79;94958.09;6114387;28;103712;-68
2022/10/03 06:52:15;;;;;;;8.70;7.37;;;;;;;21.81;40.87;94964.22;6147800;28;104076;-66
2022/10/03 06:55:51;;;;;;;8.10;7.30;;;;;;;21.93;42.33;94961.81;6152122;28;103329;-64
2022/10/03 06:59:22;;;;;;;10.50;7.77;;;;;;;21.88;41.72;94956.63;6137412;28;103146;-66
2022/10/03 07:03:03;;;;;;;13.80;12.37;;;;;;;21.86;41.42;94958.81;6147929;28;103420;-66
2022/10/03 07:06:38;;;;;;;15.47;13.90;;;;;;;21.85;41.67;94970.56;6146836;28;104056;-67
2022/10/03 07:10:16;;;;;;;14.10;12.70;;;;;;;21.84;41.74;94978.81;6138994;28;105390;-68
2022/10/03 07:13:52;;;;;;;13.40;11.97;;;;;;;21.83;41.88;94993.22;6150784;28;104449;-67
2022/10/03 07:17:17;;;;;;;15.33;13.73;;;;;;;21.82;42.12;94995.09;6148107;28;103603;-66
2022/10/03 07:20:49;;;;;;;18.23;16.23;;;;;;;21.80;41.87;95006.03;6137061;28;106118;-67
2022/10/03 07:24:16;;;;;;;16.50;14.83;;;;;;;21.79;41.80;95015.13;6148432;28;105499;-66
2022/10/03 07:27:39;;;;;;;26.90;24.10;;;;;;;21.78;42.04;95036.75;6144500;28;103231;-66
2022/10/03 07:31:01;;;;;;;37.07;33.67;;;;;;;21.78;42.01;95042.84;6144939;28;103939;-67
2022/10/03 07:34:46;;;;;;;23.03;19.70;;;;;;;21.75;42.13;95056.78;6142251;28;103450;-66
2022/10/03 07:42:24;;;;;;;16.90;15.40;;;;;;;21.74;41.90;95055.22;6147233;28;103127;-66
2022/10/03 07:45:33;;;;;;;17.13;15.50;;;;;;;21.73;42.08;95069.63;6142053;28;104072;-68
2022/10/03 07:49:10;;;;;;;15.33;14.03;;;;;;;21.72;42.18;95068.03;6144032;28;103498;-67
2022/10/03 07:52:39;;;;;;;15.67;13.60;;;;;;;21.72;42.17;95067.25;6145898;28;103193;-66
2022/10/03 07:56:01;;;;;;;14.20;12.87;;;;;;;21.70;42.27;95069.44;6137284;28;103283;-66
2022/10/03 07:59:42;;;;;;;12.07;10.97;;;;;;;21.62;42.74;95067.47;6146567;28;103233;-64
2022/10/03 08:03:23;;;;;;;11.17;9.93;;;;;;;21.65;42.52;95066.88;6137761;28;103106;-63
2022/10/03 08:06:37;;;;;;;14.47;13.20;;;;;;;21.65;42.84;95062.34;6136465;28;103704;-65
2022/10/03 08:10:03;;;;;;;11.13;10.23;;;;;;;21.64;42.73;95062.63;6146313;28;105849;-64
2022/10/03 08:13:26;;;;;;;17.23;14.17;;;;;;;21.63;42.46;95053.06;6146205;28;104303;-63
2022/10/03 08:16:54;;;;;;;25.40;22.97;;;;;;;21.64;42.53;95060.75;6142096;28;104982;-67
2022/10/03 08:20:26;;;;;;;20.27;18.40;;;;;;;21.62;42.86;95057.63;6143678;28;104267;-64
2022/10/03 08:24:10;;;;;;;17.80;16.00;;;;;;;21.62;43.17;95068.28;6142036;28;103267;-64
2022/10/03 08:27:37;;;;;;;12.27;11.27;;;;;;;21.62;42.58;95067.47;6143631;28;103326;-67
2022/10/03 08:31:01;;;;;;;10.93;9.83;;;;;;;21.61;42.44;95066.69;6140341;28;104321;-63
2022/10/03 08:34:37;;;;;;;11.43;10.20;;;;;;;21.68;42.59;95071.63;6141075;28;102994;-62
2022/10/03 08:38:25;;;;;;;12.43;11.27;;;;;;;21.67;43.20;95070.03;6119281;28;103148;-66
2022/10/03 08:42:03;;;;;;;12.73;11.53;;;;;;;21.66;43.01;95063.91;6111090;28;103197;-62
2022/10/03 08:45:45;;;;;;;14.57;12.43;;;;;;;21.69;42.95;95070.53;6123428;28;103606;-62
2022/10/03 08:49:07;;;;;;;15.90;14.50;;;;;;;21.69;43.38;95068.66;6122395;28;103432;-64
2022/10/03 08:52:29;;;;;;;13.93;12.83;;;;;;;21.62;43.78;95073.59;6112214;28;103577;-65
2022/10/03 08:55:45;;;;;;;10.33;9.43;;;;;;;21.57;43.95;95065.72;6122221;28;103269;-66
2022/10/03 08:59:13;;;;;;;8.70;7.83;;;;;;;21.54;44.26;95063.69;6121394;28;103303;-65
2022/10/03 09:02:45;;;;;;;8.27;7.40;;;;;;;21.50;44.23;95066.13;6110789;28;103508;-65
2022/10/03 09:06:13;;;;;;;6.63;6.03;;;;;;;21.51;44.02;95064.28;6097765;28;105503;-66
2022/10/03 09:09:43;;;;;;;6.63;5.90;;;;;;;21.54;44.36;95054.91;6121595;28;103212;-65
2022/10/03 09:13:17;;;;;;;7.40;6.70;;;;;;;21.59;44.30;95062.75;6115537;28;104009;-65
2022/10/03 09:16:47;;;;;;;6.83;6.23;;;;;;;21.61;44.66;95060.59;6122988;28;105487;-65
2022/10/03 09:20:16;;;;;;;5.83;5.30;;;;;;;21.61;44.58;95060.59;6122322;28;104699;-66
2022/10/03 09:24:09;;;;;;;5.93;5.40;;;;;;;21.65;44.22;95058.88;6122126;28;104564;-66
2022/10/03 09:27:38;;;;;;;5.43;4.47;;;;;;;21.69;44.66;95046.56;6042316;28;103781;-66
2022/10/03 09:30:51;;;;;;;5.33;3.73;;;;;;;21.68;45.19;95055.66;6121146;28;103048;-66
2022/10/03 09:34:26;;;;;;;4.60;4.20;;;;;;;21.70;44.86;95050.81;6121818;28;103984;-66
2022/10/03 09:38:11;;;;;;;4.80;4.40;;;;;;;21.69;44.85;95052.69;6261124;27;102775;-67
2022/10/03 09:41:42;;;;;;;4.87;4.47;;;;;;;21.66;45.31;95049.81;6269293;27;102944;-68
2022/10/03 09:45:23;;;;;;;4.27;3.97;;;;;;;21.72;45.18;95054.72;6273036;27;103139;-67
2022/10/03 09:48:43;;;;;;;3.53;3.23;;;;;;;21.72;44.78;95048.63;6258546;27;103268;-67
2022/10/03 09:51:59;;;;;;;4.43;3.30;;;;;;;21.70;45.05;95042.81;6269111;27;103182;-67
2022/10/03 09:55:35;;;;;;;3.50;3.20;;;;;;;21.67;44.82;95051.38;6270297;27;103022;-66
2022/10/03 09:59:06;;;;;;;4.03;2.60;;;;;;;21.68;44.67;95050.31;6262461;27;103408;-67
2022/10/03 10:02:42;;;;;;;2.60;2.40;;;;;;;21.68;45.12;95055.66;6268631;27;103034;-67
2022/10/03 10:06:09;;;;;;;2.60;2.40;;;;;;;21.70;44.86;95045.47;6271464;27;103753;-67
2022/10/03 10:09:51;;;;;;;2.90;2.70;;;;;;;21.70;45.13;95042.81;6268749;27;103218;-68
2022/10/03 10:13:15;;;;;;;3.23;2.77;;;;;;;21.73;44.62;95037.66;6239109;27;103147;-67
2022/10/03 10:16:36;;;;;;;2.80;2.53;;;;;;;21.71;44.44;95042.50;6272120;27;103895;-67
2022/10/03 10:19:54;;;;;;;2.93;2.73;;;;;;;21.72;44.50;95037.97;6269237;27;103626;-67
2022/10/03 10:23:19;;;;;;;4.70;2.70;;;;;;;21.74;44.27;95041.09;6259272;27;106471;-67
2022/10/03 10:26:57;;;;;;;2.50;2.23;;;;;;;21.74;44.09;95033.13;6268786;27;102966;-67
2022/10/03 10:30:15;;;;;;;7.93;2.90;;;;;;;21.72;44.25;95037.97;6257818;27;103071;-66
2022/10/03 10:34:00;;;;;;;5.07;3.20;;;;;;;21.73;44.30;95040.31;6257454;27;103853;-67
2022/10/03 10:37:34;;;;;;;7.63;3.20;;;;;;;21.70;44.22;95038.28;6268344;27;103303;-67
2022/10/03 10:41:00;;;;;;;3.70;2.87;;;;;;;21.71;43.89;95033.72;6268641;27;105921;-67
2022/10/03 10:44:41;;;;;;;8.53;3.00;;;;;;;21.73;44.01;95047.53;6261325;27;105189;-67
2022/10/03 10:48:17;;;;;;;3.47;2.50;;;;;;;21.75;43.71;95045.34;6259941;27;102878;-67
2022/10/03 10:51:51;;;;;;;4.80;3.00;;;;;;;21.73;43.28;95040.31;6251669;27;102967;-66
2022/10/03 10:55:39;;;;;;;3.63;2.60;;;;;;;21.75;43.64;95045.34;6245992;27;103024;-66
2022/10/03 10:59:31;;;;;;;2.60;2.20;;;;;;;21.74;43.07;95043.78;6250594;27;103719;-66
2022/10/03 11:03:18;;;;;;;3.17;2.50;;;;;;;21.73;43.46;95050.97;6253485;27;105418;-67
2022/10/03 11:06:54;;;;;;;5.13;2.40;;;;;;;21.74;43.18;95044.56;6247610;27;105223;-66
2022/10/03 11:10:37;;;;;;;6.27;3.17;;;;;;;21.79;43.03;95036.44;6249953;27;103019;-67
2022/10/03 11:14:23;;;;;;;5.03;2.90;;;;;;;21.81;43.08;95036.13;6242436;27;103762;-67
2022/10/03 11:18:03;;;;;;;4.17;2.33;;;;;;;21.81;43.13;95034.25;6247018;27;105170;-67
2022/10/03 11:21:59;;;;;;;3.20;2.30;;;;;;;21.84;43.23;95037.41;6248676;27;103503;-67
2022/10/03 11:25:49;;;;;;;2.70;2.07;;;;;;;21.81;43.36;95039.56;6249314;27;104997;-67
2022/10/03 11:29:39;;;;;;;2.70;2.00;;;;;;;21.80;42.72;95030.00;6246589;27;103246;-68
2022/10/03 11:33:26;;;;;;;2.33;2.10;;;;;;;21.81;43.21;95044.91;6245750;27;103163;-66
2022/10/03 11:37:04;;;;;;;3.20;1.93;;;;;;;21.80;42.87;95047.88;6248959;27;103138;-65
2022/10/03 11:40:30;;;;;;;2.60;2.10;;;;;;;21.81;42.74;95049.44;6234424;27;105246;-67
2022/10/03 11:43:56;;;;;;;3.33;2.47;;;;;;;21.81;42.79;95055.56;6248386;27;103380;-66
2022/10/03 11:47:40;;;;;;;3.87;2.53;;;;;;;21.80;42.63;95054.00;6249217;27;107784;-66
2022/10/03 11:50:47;;;;;;;2.33;2.20;;;;;;;21.79;42.57;95054.28;6250328;27;102947;-66
2022/10/03 11:53:59;;;;;;;2.67;2.47;;;;;;;21.80;42.54;95038.00;6239789;27;104117;-66
2022/10/03 11:57:29;;;;;;;3.23;2.93;;;;;;;21.79;42.41;95032.97;6249188;27;103166;-65
2022/10/03 12:00:39;;;;;;;3.23;3.03;;;;;;;21.80;42.44;95042.53;6249121;27;102932;-66
2022/10/03 12:03:52;;;;;;;3.07;2.87;;;;;;;21.79;42.31;95038.31;6239497;27;102986;-66
2022/10/03 12:10:33;;;;;;;3.30;3.00;;;;;;;21.77;42.25;95035.16;6248884;27;103130;-66
2022/10/03 12:13:44;;;;;;;3.40;3.10;;;;;;;21.76;42.11;95036.25;6250372;27;103962;-66
2022/10/03 12:16:59;;;;;;;3.03;2.77;;;;;;;21.78;42.58;95028.75;6238483;27;103224;-66
2022/10/03 12:20:15;;;;;;;3.53;3.23;;;;;;;21.77;41.94;95037.84;6250258;27;104990;-66
2022/10/03 12:23:33;;;;;;;3.03;2.73;;;;;;;21.78;42.00;95034.06;6249793;27;103066;-66
2022/10/03 12:26:48;;;;;;;3.97;3.70;;;;;;;21.77;42.18;95029.84;6243611;27;105266;-66
2022/10/03 12:29:57;;;;;;;3.80;3.60;;;;;;;21.80;42.34;95021.25;6252976;27;106050;-66
2022/10/03 12:33:17;;;;;;;3.63;3.43;;;;;;;21.80;42.50;95030.00;6251055;27;103281;-66
2022/10/03 12:36:29;;;;;;;5.30;3.63;;;;;;;21.81;42.11;95033.47;6248520;27;103139;-66
2022/10/03 12:39:39;;;;;;;4.10;3.80;;;;;;;21.81;42.16;95028.13;6236267;27;102942;-66
2022/10/03 12:42:50;;;;;;;3.90;3.60;;;;;;;21.80;42.18;95016.69;6248866;27;103017;-66
2022/10/03 12:46:00;;;;;;;3.60;3.40;;;;;;;21.80;42.26;95027.34;6248497;27;104030;-67
2022/10/03 12:49:08;;;;;;;4.00;3.70;;;;;;;21.79;41.91;95030.31;6238013;27;104017;-66
2022/10/03 12:52:21;;;;;;;3.63;3.40;;;;;;;21.80;41.42;95023.91;6247861;27;103994;-67
2022/10/03 12:55:29;;;;;;;3.43;3.13;;;;;;;21.79;41.32;95027.66;6248360;27;103794;-67
2022/10/03 12:58:42;;;;;;;3.70;3.50;;;;;;;21.77;42.06;95032.50;6248154;27;102963;-67
2022/10/03 13:02:01;;;;;;;4.30;4.00;;;;;;;21.76;41.58;95031.72;6235837;27;102934;-66
2022/10/03 13:05:29;;;;;;;4.23;4.00;;;;;;;21.79;41.62;95040.97;6248562;27;103765;-67
2022/10/03 13:08:51;;;;;;;4.47;4.17;;;;;;;21.80;41.53;95039.88;6247877;27;103113;-67
2022/10/03 13:12:06;;;;;;;4.00;3.70;;;;;;;21.83;41.43;95038.50;6240664;27;103553;-66
2022/10/03 13:15:44;;;;;;;4.23;3.93;;;;;;;21.79;41.51;95035.66;6247669;27;103135;-66
2022/10/03 13:18:59;;;;;;;4.50;4.20;;;;;;;21.81;41.69;95050.22;6248943;27;102942;-66
2022/10/03 13:22:25;;;;;;;4.33;4.10;;;;;;;21.80;41.20;95039.88;6249337;27;104147;-66
2022/10/03 13:25:38;;;;;;;4.73;4.37;;;;;;;21.78;40.84;95040.19;6247100;27;104344;-66
2022/10/03 13:29:12;;;;;;;4.50;4.13;;;;;;;21.78;40.50;95039.41;6252042;27;103575;-66
2022/10/03 13:32:22;;;;;;;4.27;4.03;;;;;;;21.78;40.85;95034.88;6244566;27;105981;-67
2022/10/03 13:39:12;;;;;;;4.50;4.30;;;;;;;21.79;40.95;95030.31;6248409;27;104372;-66
2022/10/03 13:42:22;;;;;;;4.97;4.67;;;;;;;21.79;41.28;95033.78;6248091;27;105065;-67
2022/10/03 13:45:27;;;;;;;5.30;5.00;;;;;;;21.77;41.00;95027.97;6242236;27;103591;-67
2022/10/03 13:48:32;;;;;;;5.57;5.17;;;;;;;21.75;40.79;95027.47;6243492;27;103164;-66
2022/10/03 13:51:44;;;;;;;4.67;4.37;;;;;;;21.75;40.34;95024.81;6247761;27;103147;-67
2022/10/03 13:55:08;;;;;;;4.87;4.57;;;;;;;21.76;40.46;95025.59;6244959;27;103198;-67
2022/10/03 13:58:35;;;;;;;5.40;5.00;;;;;;;21.76;40.40;95026.38;6240635;27;104487;-67
2022/10/03 14:01:52;;;;;;;4.20;3.90;;;;;;;21.74;40.49;95033.13;6247849;27;103097;-66
2022/10/03 14:05:08;;;;;;;4.57;4.27;;;;;;;21.73;39.97;95032.34;6245676;27;104152;-67
2022/10/03 14:08:30;;;;;;;4.03;3.83;;;;;;;21.73;39.73;95032.34;6240917;27;103688;-67
2022/10/03 14:11:41;;;;;;;4.50;4.20;;;;;;;21.71;40.07;95026.53;6246894;27;103294;-67
2022/10/03 14:15:14;;;;;;;4.37;4.17;;;;;;;21.71;39.86;95017.75;6244304;27;103162;-66
2022/10/03 14:18:36;;;;;;;4.43;4.17;;;;;;;21.69;39.92;95023.38;6247823;27;104145;-67
2022/10/03 14:21:53;;;;;;;4.20;3.90;;;;;;;21.68;39.31;95035.13;6236731;27;103988;-67
2022/10/03 14:25:05;;;;;;;4.87;4.57;;;;;;;21.67;39.72;95030.06;6251780;27;105913;-66
2022/10/03 14:28:16;;;;;;;4.23;3.87;;;;;;;21.73;40.21;95032.34;6251652;27;102998;-63
2022/10/03 14:31:25;;;;;;;4.00;3.70;;;;;;;21.84;40.29;95045.41;6240165;27;103406;-63
2022/10/03 14:34:41;;;;;;;3.63;3.33;;;;;;;21.90;39.17;95041.56;6247377;27;102904;-62
2022/10/03 14:37:52;;;;;;;3.87;3.50;;;;;;;21.92;39.24;95039.38;6250537;27;103333;-62
2022/10/03 14:41:05;;;;;;;4.80;4.40;;;;;;;21.95;39.29;95036.88;6252522;27;104250;-62
2022/10/03 14:44:13;;;;;;;6.07;5.60;;;;;;;21.98;39.61;95038.16;6240056;27;103121;-62
2022/10/03 14:47:18;;;;;;;6.20;5.70;;;;;;;22.01;40.58;95046.34;6250171;27;104370;-62
2022/10/03 14:50:24;;;;;;;7.40;6.70;;;;;;;22.05;40.88;95046.50;6251906;27;104337;-62
2022/10/03 14:53:29;;;;;;;8.00;7.30;;;;;;;22.07;40.17;95042.44;6245246;27;106191;-66
2022/10/03 14:56:41;;;;;;;7.93;7.30;;;;;;;22.10;40.41;95041.81;6246120;27;103909;-62
2022/10/03 14:59:53;;;;;;;9.33;8.60;;;;;;;22.13;39.76;95053.75;6252018;27;104332;-62
2022/10/03 15:02:57;;;;;;;10.37;9.37;;;;;;;22.15;39.58;95056.09;6250781;27;103257;-62
2022/10/03 15:06:20;;;;;;;11.67;10.47;;;;;;;22.15;39.69;95048.91;6237741;27;102947;-62
2022/10/03 15:09:32;;;;;;;12.83;11.83;;;;;;;22.19;39.83;95057.09;6249507;27;103084;-63
2022/10/03 15:12:38;;;;;;;11.83;10.70;;;;;;;22.21;39.85;95046.91;6249484;27;103944;-62
2022/10/03 15:15:46;;;;;;;13.53;12.53;;;;;;;22.20;40.01;95045.34;6221069;27;103805;-68
2022/10/03 15:18:56;;;;;;;12.70;11.80;;;;;;;22.18;40.37;95045.66;6214419;27;102895;-62
2022/10/03 15:22:05;;;;;;;12.83;11.80;;;;;;;22.19;41.26;95049.09;6229644;27;103105;-63
2022/10/03 15:25:16;;;;;;;11.70;10.80;;;;;;;22.18;42.37;95050.97;6234795;27;103191;-62
2022/10/03 15:28:22;;;;;;;12.67;11.67;;;;;;;22.15;44.22;95056.09;6239857;27;103193;-63
2022/10/03 15:31:33;;;;;;;12.33;11.37;;;;;;;22.18;45.88;95058.16;6245400;27;104078;-63
2022/10/03 15:34:42;;;;;;;11.47;10.47;;;;;;;22.19;46.52;95054.44;6233388;27;104641;-63
2022/10/03 15:37:45;;;;;;;11.27;10.57;;;;;;;22.21;47.12;95062.91;6219383;28;104084;-63
2022/10/03 15:40:54;;;;;;;11.03;10.23;;;;;;;22.21;48.29;95065.56;6214719;28;104246;-62
2022/10/03 15:44:02;;;;;;;11.63;10.63;;;;;;;22.23;48.62;95074.03;6224496;28;104815;-62
2022/10/03 15:47:11;;;;;;;12.37;11.00;;;;;;;22.27;48.67;95075.78;6226061;27;103108;-65
2022/10/03 15:50:22;;;;;;;14.90;11.13;;;;;;;22.27;46.96;95078.44;6219224;27;104428;-66
2022/10/03 15:53:26;;;;;;;10.67;9.57;;;;;;;22.27;45.62;95089.13;6227045;27;103170;-62